Time;durP1;ratioP1;P1;durP2;ratioP2;P2;SDS_P1;SDS_P2;PMS_P1;PMS_P2;Temp;Humidity;BMP_temperature;BMP_pressure;BME280_temperature;BME280_humidity;BME280_pressure;Samples;Min_cycle;Max_cycle;Signal;HPM_P1;HPM_P2
2022/11/12 00:00:55;;;;;;;;;;;10.30;99.90;;;;;;5097155;28;20384;-76
2022/11/12 00:03:21;;;;;;;;;;;10.30;99.90;;;;;;5096713;28;19998;-74
2022/11/12 00:05:48;;;;;;;;;;;10.30;99.90;;;;;;5097019;28;19908;-74
2022/11/12 00:08:13;;;;;;;;;;;10.30;99.90;;;;;;5096711;28;19954;-75
2022/11/12 00:10:39;;;;;;;;;;;10.20;99.90;;;;;;5079337;28;19908;-74
2022/11/12 00:13:04;;;;;;;;;;;10.20;99.90;;;;;;5078411;28;19908;-74
2022/11/12 00:15:30;;;;;;;;;;;10.20;99.90;;;;;;5096867;28;19908;-73
2022/11/12 00:17:56;;;;;;;;;;;10.10;99.90;;;;;;5078344;28;20404;-76
2022/11/12 00:20:21;;;;;;;;;;;10.20;99.90;;;;;;5096493;28;20373;-74
2022/11/12 00:22:47;;;;;;;;;;;10.20;99.90;;;;;;5096924;28;19959;-74
2022/11/12 00:25:12;;;;;;;;;;;10.20;99.90;;;;;;5096608;28;19908;-76
2022/11/12 00:27:38;;;;;;;;;;;10.20;99.90;;;;;;5096878;28;19915;-73
2022/11/12 00:30:03;;;;;;;;;;;10.10;99.90;;;;;;5095956;28;19919;-74
2022/11/12 00:32:29;;;;;;;;;;;10.10;99.90;;;;;;5096784;28;20285;-75
2022/11/12 00:34:55;;;;;;;;;;;10.10;99.90;;;;;;5096459;28;19908;-74
2022/11/12 00:37:22;;;;;;;;;;;10.10;99.90;;;;;;5096726;28;20001;-73
2022/11/12 00:39:47;;;;;;;;;;;10.10;99.90;;;;;;5096123;28;19912;-76
2022/11/12 00:42:13;;;;;;;;;;;10.10;99.90;;;;;;5096263;28;19935;-73
2022/11/12 00:44:38;;;;;;;;;;;10.10;99.90;;;;;;5095868;28;20389;-75
2022/11/12 00:47:04;;;;;;;;;;;10.10;99.90;;;;;;5095964;28;19952;-73
2022/11/12 00:49:29;;;;;;;;;;;10.00;99.90;;;;;;5096194;28;20390;-73
2022/11/12 00:51:55;;;;;;;;;;;10.00;99.90;;;;;;5095676;28;19920;-74
2022/11/12 00:54:20;;;;;;;;;;;10.00;99.90;;;;;;5095800;28;19934;-74
2022/11/12 00:56:46;;;;;;;;;;;10.00;99.90;;;;;;5096006;28;20361;-75
2022/11/12 00:59:12;;;;;;;;;;;10.00;99.90;;;;;;5095751;28;19916;-74
2022/11/12 01:01:38;;;;;;;;;;;9.90;99.90;;;;;;5095556;28;20422;-74
2022/11/12 01:04:03;;;;;;;;;;;9.80;99.90;;;;;;5095870;28;19960;-75
2022/11/12 01:06:29;;;;;;;;;;;9.90;99.90;;;;;;5095549;28;19912;-74
2022/11/12 01:08:55;;;;;;;;;;;9.80;99.90;;;;;;5095515;28;19911;-73
2022/11/12 01:11:22;;;;;;;;;;;9.80;99.90;;;;;;5095740;28;19996;-75
2022/11/12 01:13:52;;;;;;;;;;;9.70;99.90;;;;;;5077208;28;20007;-74
2022/11/12 01:16:19;;;;;;;;;;;9.80;99.90;;;;;;5076966;28;20293;-74
2022/11/12 01:18:45;;;;;;;;;;;9.70;99.90;;;;;;5095903;28;19938;-73
2022/11/12 01:21:11;;;;;;;;;;;9.70;99.90;;;;;;5095237;28;19915;-74
2022/11/12 01:23:37;;;;;;;;;;;9.70;99.90;;;;;;5095394;28;19947;-74
2022/11/12 01:26:07;;;;;;;;;;;9.70;99.90;;;;;;5095137;28;19998;-74
2022/11/12 01:28:33;;;;;;;;;;;9.60;99.90;;;;;;5095648;28;20353;-75
2022/11/12 01:31:11;;;;;;;;;;;9.50;99.90;;;;;;5095031;28;19974;-75
2022/11/12 01:33:37;;;;;;;;;;;9.60;99.90;;;;;;5095597;28;19908;-75
2022/11/12 01:36:03;;;;;;;;;;;9.70;99.90;;;;;;5095291;28;19915;-74
2022/11/12 01:38:32;;;;;;;;;;;9.70;99.90;;;;;;5095446;28;20354;-74
2022/11/12 01:40:57;;;;;;;;;;;9.70;99.90;;;;;;5094837;28;19934;-75
2022/11/12 01:43:23;;;;;;;;;;;9.70;99.90;;;;;;5095242;28;20010;-73
2022/11/12 01:45:49;;;;;;;;;;;9.60;99.90;;;;;;5094762;28;19964;-75
2022/11/12 01:48:29;;;;;;;;;;;9.60;99.90;;;;;;5094993;28;19999;-73
2022/11/12 01:50:55;;;;;;;;;;;9.60;99.90;;;;;;5094478;28;20344;-73
2022/11/12 01:53:21;;;;;;;;;;;9.70;99.90;;;;;;5095761;28;19909;-74
2022/11/12 01:55:48;;;;;;;;;;;9.70;99.90;;;;;;5094627;28;19908;-76
2022/11/12 01:58:14;;;;;;;;;;;9.70;99.90;;;;;;5076405;28;20332;-74
2022/11/12 02:00:40;;;;;;;;;;;9.70;99.90;;;;;;5095142;28;20272;-76
2022/11/12 02:03:14;;;;;;;;;;;9.60;99.90;;;;;;5093644;28;19916;-73
2022/11/12 02:05:41;;;;;;;;;;;9.60;99.90;;;;;;5094785;28;19933;-74
2022/11/12 02:08:09;;;;;;;;;;;9.60;99.90;;;;;;5094673;28;19919;-73
2022/11/12 02:10:37;;;;;;;;;;;9.70;99.90;;;;;;5094938;28;20426;-75
2022/11/12 02:15:46;;;;;;;;;;;9.60;99.90;;;;;;5094089;28;19915;-76
2022/11/12 02:18:12;;;;;;;;;;;9.70;99.90;;;;;;5094288;28;19909;-74
2022/11/12 02:20:37;;;;;;;;;;;9.70;99.90;;;;;;5094164;28;19950;-75
2022/11/12 02:23:04;;;;;;;;;;;9.70;99.90;;;;;;5094137;28;19920;-74
2022/11/12 02:25:30;;;;;;;;;;;9.60;99.90;;;;;;5094389;28;20285;-73
2022/11/12 02:27:57;;;;;;;;;;;9.60;99.90;;;;;;5094103;28;19919;-73
2022/11/12 02:30:37;;;;;;;;;;;9.60;99.90;;;;;;5094041;28;19915;-74
2022/11/12 02:33:02;;;;;;;;;;;9.60;99.90;;;;;;5094258;28;19908;-73
2022/11/12 02:35:28;;;;;;;;;;;9.60;99.90;;;;;;5094280;28;19990;-75
2022/11/12 02:37:54;;;;;;;;;;;9.50;99.90;;;;;;5094497;28;20022;-74
2022/11/12 02:40:19;;;;;;;;;;;9.40;99.90;;;;;;5093884;28;19908;-74
2022/11/12 02:42:45;;;;;;;;;;;9.40;99.90;;;;;;5093732;28;20028;-73
2022/11/12 02:45:10;;;;;;;;;;;9.50;99.90;;;;;;5093920;28;19908;-74
2022/11/12 02:47:36;;;;;;;;;;;9.50;99.90;;;;;;5094405;28;19930;-74
2022/11/12 02:50:02;;;;;;;;;;;9.50;99.90;;;;;;5093793;28;19908;-75
2022/11/12 02:52:28;;;;;;;;;;;9.60;99.90;;;;;;5093955;28;19924;-73
2022/11/12 02:54:53;;;;;;;;;;;9.60;99.90;;;;;;5093735;28;20267;-74
2022/11/12 02:57:19;;;;;;;;;;;9.50;99.90;;;;;;5093721;28;19930;-75
2022/11/12 02:59:44;;;;;;;;;;;9.50;99.90;;;;;;5093965;28;19919;-73
2022/11/12 03:02:10;;;;;;;;;;;9.50;99.90;;;;;;5093600;28;19919;-74
2022/11/12 03:04:35;;;;;;;;;;;9.50;99.90;;;;;;5093919;28;19908;-75
2022/11/12 03:07:01;;;;;;;;;;;9.60;99.90;;;;;;5093596;28;19914;-73
2022/11/12 03:09:26;;;;;;;;;;;9.60;99.90;;;;;;5093877;28;19908;-75
2022/11/12 03:11:52;;;;;;;;;;;9.60;99.90;;;;;;5093566;28;20377;-74
2022/11/12 03:14:17;;;;;;;;;;;9.60;99.90;;;;;;5095033;28;20350;-73
2022/11/12 03:16:43;;;;;;;;;;;9.60;99.90;;;;;;5097669;28;19908;-74
2022/11/12 03:19:08;;;;;;;;;;;9.50;99.90;;;;;;5097639;28;19915;-74
2022/11/12 03:21:34;;;;;;;;;;;9.60;99.90;;;;;;5097801;28;20301;-75
2022/11/12 03:24:00;;;;;;;;;;;9.60;99.90;;;;;;5097556;28;19954;-76
2022/11/12 03:26:25;;;;;;;;;;;9.50;99.90;;;;;;5097512;28;19947;-74
2022/11/12 03:28:51;;;;;;;;;;;9.50;99.90;;;;;;5097431;28;20293;-74
2022/11/12 03:31:16;;;;;;;;;;;9.50;99.90;;;;;;5097734;28;19908;-75
2022/11/12 03:33:42;;;;;;;;;;;9.60;99.90;;;;;;5097363;28;20362;-74
2022/11/12 03:36:08;;;;;;;;;;;9.50;99.90;;;;;;5097297;28;19915;-75
2022/11/12 03:38:33;;;;;;;;;;;9.60;99.90;;;;;;5097554;28;19956;-74
2022/11/12 03:40:59;;;;;;;;;;;9.50;99.90;;;;;;5097239;28;19954;-74
2022/11/12 03:43:24;;;;;;;;;;;9.50;99.90;;;;;;5078872;28;19922;-75
2022/11/12 03:45:50;;;;;;;;;;;9.50;99.90;;;;;;5097184;28;19908;-74
2022/11/12 03:48:15;;;;;;;;;;;9.50;99.90;;;;;;5097702;28;20365;-75
2022/11/12 03:50:41;;;;;;;;;;;9.50;99.90;;;;;;5096859;28;19920;-73
2022/11/12 03:53:07;;;;;;;;;;;9.50;99.90;;;;;;5097901;28;19919;-73
2022/11/12 03:55:32;;;;;;;;;;;9.40;99.90;;;;;;5097120;28;20373;-74
2022/11/12 03:57:58;;;;;;;;;;;9.40;99.90;;;;;;5097322;28;19991;-74
2022/11/12 04:00:24;;;;;;;;;;;9.40;99.90;;;;;;5096885;28;20419;-74
2022/11/12 04:02:50;;;;;;;;;;;9.30;99.90;;;;;;5095450;28;19916;-74
2022/11/12 04:10:45;;;;;;;;;;;9.10;99.90;;;;;;5097067;28;19919;-77
2022/11/12 04:13:26;;;;;;;;;;;9.20;99.90;;;;;;5096622;28;19908;-74
2022/11/12 04:21:49;;;;;;;;;;;9.30;99.90;;;;;;5097044;28;19957;-74
2022/11/12 04:27:00;;;;;;;;;;;9.30;99.90;;;;;;5095878;28;20030;-75
2022/11/12 04:32:09;;;;;;;;;;;9.30;99.90;;;;;;5096601;28;20415;-73
2022/11/12 04:34:35;;;;;;;;;;;9.40;99.90;;;;;;5096212;28;19908;-74
2022/11/12 04:37:01;;;;;;;;;;;9.40;99.90;;;;;;5096161;28;19908;-75
2022/11/12 04:39:27;;;;;;;;;;;9.40;99.90;;;;;;5096650;28;19976;-73
2022/11/12 04:47:21;;;;;;;;;;;9.40;99.90;;;;;;5096023;28;19915;-73
2022/11/12 04:49:46;;;;;;;;;;;9.40;99.90;;;;;;5096460;28;19908;-73
2022/11/12 04:52:12;;;;;;;;;;;9.40;99.90;;;;;;5077881;28;19904;-74
2022/11/12 04:54:37;;;;;;;;;;;9.40;99.90;;;;;;5096073;28;19915;-75
2022/11/12 04:57:03;;;;;;;;;;;9.40;99.90;;;;;;5095762;28;19915;-75
2022/11/12 04:59:28;;;;;;;;;;;9.40;99.90;;;;;;5095995;28;19951;-73
2022/11/12 05:01:54;;;;;;;;;;;9.40;99.90;;;;;;5095573;28;20011;-74
2022/11/12 05:04:20;;;;;;;;;;;9.40;99.90;;;;;;5095904;28;19916;-74
2022/11/12 05:06:52;;;;;;;;;;;9.30;99.90;;;;;;5095561;28;20433;-73
2022/11/12 05:09:19;;;;;;;;;;;9.40;99.90;;;;;;5095815;28;20275;-76
2022/11/12 05:11:44;;;;;;;;;;;9.40;99.90;;;;;;5095711;28;19912;-74
2022/11/12 05:14:10;;;;;;;;;;;9.40;99.90;;;;;;5095414;28;19914;-74
2022/11/12 05:16:36;;;;;;;;;;;9.40;99.90;;;;;;5095422;28;19908;-75
2022/11/12 05:19:01;;;;;;;;;;;9.40;99.90;;;;;;5095636;28;19998;-74
2022/11/12 05:24:11;;;;;;;;;;;9.30;99.90;;;;;;5095322;28;19966;-73
2022/11/12 05:26:36;;;;;;;;;;;9.30;99.90;;;;;;5095788;28;19908;-75
2022/11/12 05:29:02;;;;;;;;;;;9.30;99.90;;;;;;5095134;28;19908;-73
2022/11/12 05:31:27;;;;;;;;;;;9.30;99.90;;;;;;5095352;28;20438;-75
2022/11/12 05:33:53;;;;;;;;;;;9.30;99.90;;;;;;5095033;28;19909;-73
2022/11/12 05:36:18;;;;;;;;;;;9.30;99.90;;;;;;5094999;28;19912;-73
2022/11/12 05:38:44;;;;;;;;;;;9.30;99.90;;;;;;5095006;28;19992;-74
2022/11/12 05:41:09;;;;;;;;;;;9.30;99.90;;;;;;5095476;28;19958;-75
2022/11/12 05:43:35;;;;;;;;;;;9.30;99.90;;;;;;5094769;28;19919;-75
2022/11/12 05:46:00;;;;;;;;;;;9.30;99.90;;;;;;5095161;28;19908;-75
2022/11/12 05:48:26;;;;;;;;;;;9.20;99.90;;;;;;5094794;28;19908;-74
2022/11/12 05:50:52;;;;;;;;;;;9.20;99.90;;;;;;5094552;28;20377;-75
2022/11/12 05:53:17;;;;;;;;;;;9.20;99.90;;;;;;5095245;28;19915;-75
2022/11/12 05:55:43;;;;;;;;;;;9.10;99.90;;;;;;5094676;28;19915;-75
2022/11/12 05:58:08;;;;;;;;;;;9.00;99.90;;;;;;5094929;28;19908;-73
2022/11/12 06:00:40;;;;;;;;;;;8.90;99.90;;;;;;5094815;28;19919;-75
2022/11/12 06:03:06;;;;;;;;;;;8.90;99.90;;;;;;5092890;28;20365;-73
2022/11/12 06:05:32;;;;;;;;;;;9.00;99.90;;;;;;5094793;28;19908;-74
2022/11/12 06:07:58;;;;;;;;;;;9.00;99.90;;;;;;5094405;28;19908;-75
2022/11/12 06:10:23;;;;;;;;;;;9.10;99.90;;;;;;5094429;28;19947;-75
2022/11/12 06:12:49;;;;;;;;;;;9.20;99.90;;;;;;5094332;28;19908;-75
2022/11/12 06:15:15;;;;;;;;;;;9.10;99.90;;;;;;5094313;28;19912;-73
2022/11/12 06:17:40;;;;;;;;;;;9.20;99.90;;;;;;5094846;28;20332;-74
2022/11/12 06:20:06;;;;;;;;;;;9.10;99.90;;;;;;5094213;28;19951;-74
2022/11/12 06:22:32;;;;;;;;;;;9.10;99.90;;;;;;5094114;28;20022;-74
2022/11/12 06:24:57;;;;;;;;;;;9.10;99.90;;;;;;5094194;28;19908;-74
2022/11/12 06:27:23;;;;;;;;;;;9.10;99.90;;;;;;5094413;28;19990;-76
2022/11/12 06:29:48;;;;;;;;;;;9.10;99.90;;;;;;5094134;28;19947;-75
2022/11/12 06:32:14;;;;;;;;;;;9.10;99.90;;;;;;5094071;28;19912;-73
2022/11/12 06:34:39;;;;;;;;;;;9.10;99.90;;;;;;5093692;28;19915;-76
2022/11/12 06:37:05;;;;;;;;;;;9.00;99.90;;;;;;5094212;28;20402;-74
2022/11/12 06:39:30;;;;;;;;;;;9.00;99.90;;;;;;5093921;28;19908;-74
2022/11/12 06:41:56;;;;;;;;;;;9.10;99.90;;;;;;5093814;28;19920;-75
2022/11/12 06:44:22;;;;;;;;;;;9.10;99.90;;;;;;5093818;28;19912;-76
2022/11/12 06:46:47;;;;;;;;;;;9.10;99.90;;;;;;5093881;28;19908;-74
2022/11/12 06:49:13;;;;;;;;;;;9.10;99.90;;;;;;5093950;28;19909;-74
2022/11/12 06:51:38;;;;;;;;;;;9.10;99.90;;;;;;5093711;28;20365;-75
2022/11/12 06:54:04;;;;;;;;;;;9.10;99.90;;;;;;5094283;28;19912;-74
2022/11/12 06:56:30;;;;;;;;;;;9.00;99.90;;;;;;5094295;28;19908;-73
2022/11/12 06:58:55;;;;;;;;;;;9.10;99.90;;;;;;5093695;28;19931;-74
2022/11/12 07:01:22;;;;;;;;;;;9.10;99.90;;;;;;5093673;28;19908;-74
2022/11/12 07:03:50;;;;;;;;;;;9.00;99.90;;;;;;5093875;28;19912;-74
2022/11/12 07:06:19;;;;;;;;;;;9.00;99.90;;;;;;5093544;28;19909;-74
2022/11/12 07:08:48;;;;;;;;;;;9.00;99.90;;;;;;5094188;28;20366;-75
2022/11/12 07:11:14;;;;;;;;;;;9.00;99.90;;;;;;5093549;28;20427;-73
2022/11/12 07:13:40;;;;;;;;;;;8.90;99.90;;;;;;5093559;28;19912;-74
2022/11/12 07:16:06;;;;;;;;;;;8.90;99.90;;;;;;5094117;28;19989;-73
2022/11/12 07:18:32;;;;;;;;;;;8.90;99.90;;;;;;5092258;28;19916;-73
2022/11/12 07:21:08;;;;;;;;;;;8.90;99.90;;;;;;5093795;28;20383;-74
2022/11/12 07:23:34;;;;;;;;;;;8.90;99.90;;;;;;5093374;28;20389;-74
2022/11/12 07:26:09;;;;;;;;;;;9.00;99.90;;;;;;5093435;28;19915;-75
2022/11/12 07:28:35;;;;;;;;;;;9.00;99.90;;;;;;5093449;28;19912;-74
2022/11/12 07:31:01;;;;;;;;;;;8.90;99.90;;;;;;5093734;28;19994;-73
2022/11/12 07:33:27;;;;;;;;;;;9.00;99.90;;;;;;5093473;28;19908;-74
2022/11/12 07:36:00;;;;;;;;;;;9.00;99.90;;;;;;5093709;28;19916;-73
2022/11/12 07:38:26;;;;;;;;;;;9.10;99.90;;;;;;5093371;28;19935;-73
2022/11/12 07:40:51;;;;;;;;;;;9.10;99.90;;;;;;5093339;28;19944;-73
2022/11/12 07:43:17;;;;;;;;;;;9.20;99.90;;;;;;5093350;28;20438;-75
2022/11/12 07:45:42;;;;;;;;;;;9.20;99.90;;;;;;5093826;28;19908;-73
2022/11/12 07:48:08;;;;;;;;;;;9.30;99.90;;;;;;5093274;28;19915;-74
2022/11/12 07:50:33;;;;;;;;;;;9.30;99.90;;;;;;5093301;28;19995;-73
2022/11/12 07:52:59;;;;;;;;;;;9.30;99.90;;;;;;5094389;28;19919;-75
2022/11/12 07:55:24;;;;;;;;;;;9.40;99.90;;;;;;5093184;28;19912;-75
2022/11/12 07:57:50;;;;;;;;;;;9.40;99.90;;;;;;5093451;28;19942;-74
2022/11/12 08:00:15;;;;;;;;;;;9.40;99.90;;;;;;5093182;28;19915;-73
2022/11/12 08:02:41;;;;;;;;;;;9.50;99.90;;;;;;5095999;28;20006;-74
2022/11/12 08:05:06;;;;;;;;;;;9.50;99.90;;;;;;5097089;28;19912;-74
2022/11/12 08:07:32;;;;;;;;;;;9.60;99.90;;;;;;5096749;28;19915;-75
2022/11/12 08:09:57;;;;;;;;;;;9.60;99.90;;;;;;5096682;28;19908;-73
2022/11/12 08:12:23;;;;;;;;;;;9.60;99.90;;;;;;5096907;28;19908;-74
2022/11/12 08:14:49;;;;;;;;;;;9.60;99.90;;;;;;5096582;28;19908;-74
2022/11/12 08:17:14;;;;;;;;;;;9.70;99.90;;;;;;5096818;28;19999;-74
2022/11/12 08:19:40;;;;;;;;;;;9.70;99.90;;;;;;5096505;28;19948;-75
2022/11/12 08:22:05;;;;;;;;;;;9.70;99.90;;;;;;5096979;28;19918;-75
2022/11/12 08:24:31;;;;;;;;;;;9.80;99.90;;;;;;5096743;28;19908;-74
2022/11/12 08:26:56;;;;;;;;;;;9.90;99.90;;;;;;5096911;28;19908;-74
2022/11/12 08:29:22;;;;;;;;;;;9.90;99.90;;;;;;5096233;28;20362;-74
2022/11/12 08:31:47;;;;;;;;;;;10.00;99.90;;;;;;5096553;28;19908;-74
2022/11/12 08:34:13;;;;;;;;;;;10.00;99.90;;;;;;5096260;28;19965;-74
2022/11/12 08:36:39;;;;;;;;;;;10.00;99.90;;;;;;5096201;28;19909;-73
2022/11/12 08:39:05;;;;;;;;;;;10.00;99.90;;;;;;5096128;28;19965;-73
2022/11/12 08:41:31;;;;;;;;;;;10.10;99.90;;;;;;5096093;28;19994;-76
2022/11/12 08:43:57;;;;;;;;;;;10.20;99.90;;;;;;5096137;28;19991;-75
2022/11/12 08:46:22;;;;;;;;;;;10.30;99.90;;;;;;5096005;28;19909;-76
2022/11/12 08:48:48;;;;;;;;;;;10.40;99.90;;;;;;5095958;28;19916;-75
2022/11/12 08:51:13;;;;;;;;;;;10.40;99.90;;;;;;5095744;28;19967;-74
2022/11/12 08:53:39;;;;;;;;;;;10.40;99.90;;;;;;5096365;28;19994;-75
2022/11/12 08:56:04;;;;;;;;;;;10.40;99.90;;;;;;5096399;28;19919;-75
2022/11/12 08:58:30;;;;;;;;;;;10.60;99.90;;;;;;5095750;28;19908;-74
2022/11/12 09:00:56;;;;;;;;;;;11.00;99.90;;;;;;5095703;28;19908;-74
2022/11/12 09:03:23;;;;;;;;;;;11.40;99.90;;;;;;5077399;28;20324;-74
2022/11/12 09:05:49;;;;;;;;;;;11.80;99.90;;;;;;5095943;28;19908;-74
2022/11/12 09:08:19;;;;;;;;;;;12.10;99.90;;;;;;5096005;28;20361;-73
2022/11/12 09:10:45;;;;;;;;;;;12.30;99.90;;;;;;5095936;28;20420;-75
2022/11/12 09:13:10;;;;;;;;;;;12.40;99.90;;;;;;5095237;28;19910;-75
2022/11/12 09:15:36;;;;;;;;;;;12.60;99.90;;;;;;5095690;28;20003;-74
2022/11/12 09:18:03;;;;;;;;;;;12.70;99.90;;;;;;5095334;28;20353;-76
2022/11/12 09:20:29;;;;;;;;;;;12.90;99.90;;;;;;5095335;28;19917;-74
2022/11/12 09:22:58;;;;;;;;;;;13.00;99.90;;;;;;5095535;28;20075;-73
2022/11/12 09:25:24;;;;;;;;;;;13.20;99.90;;;;;;5095256;28;20258;-74
2022/11/12 09:27:49;;;;;;;;;;;13.20;99.90;;;;;;5095479;28;19934;-74
2022/11/12 09:30:15;;;;;;;;;;;13.20;99.90;;;;;;5095166;28;19912;-75
2022/11/12 09:32:40;;;;;;;;;;;13.30;99.90;;;;;;5093868;28;19916;-75
2022/11/12 09:35:06;;;;;;;;;;;13.40;99.90;;;;;;5095355;28;19964;-74
2022/11/12 09:37:32;;;;;;;;;;;13.40;99.90;;;;;;5095045;28;20357;-74
2022/11/12 09:39:57;;;;;;;;;;;13.50;99.90;;;;;;5095041;28;19969;-75
2022/11/12 09:42:23;;;;;;;;;;;13.50;99.90;;;;;;5095019;28;19912;-76
2022/11/12 09:44:58;;;;;;;;;;;13.60;99.90;;;;;;5095179;28;19931;-74
2022/11/12 09:47:28;;;;;;;;;;;13.70;99.90;;;;;;5094841;28;19989;-75
2022/11/12 09:50:02;;;;;;;;;;;13.90;99.90;;;;;;5094745;28;19957;-74
2022/11/12 09:52:28;;;;;;;;;;;14.20;99.90;;;;;;5094377;28;19920;-75
2022/11/12 09:55:01;;;;;;;;;;;14.30;99.90;;;;;;5095746;28;20374;-75
2022/11/12 09:57:27;;;;;;;;;;;14.30;99.90;;;;;;5094566;28;19908;-74
2022/11/12 09:59:52;;;;;;;;;;;14.40;99.90;;;;;;5094625;28;19915;-74
2022/11/12 10:02:26;;;;;;;;;;;14.40;99.90;;;;;;5094769;28;20300;-74
2022/11/12 10:05:11;;;;;;;;;;;14.50;99.90;;;;;;5094587;28;19908;-74
2022/11/12 10:07:42;;;;;;;;;;;14.50;99.90;;;;;;5094947;28;19999;-74
2022/11/12 10:10:39;;;;;;;;;;;14.60;99.90;;;;;;5076208;28;19930;-84
2022/11/12 10:13:07;;;;;;;;;;;14.50;99.90;;;;;;5045197;28;19942;-83
2022/11/12 10:18:37;;;;;;;;;;;14.50;99.90;;;;;;5052788;28;19908;-85
2022/11/12 10:21:28;;;;;;;;;;;14.60;99.90;;;;;;5076614;28;19915;-81
2022/11/12 10:23:55;;;;;;;;;;;14.60;99.90;;;;;;5075326;28;19912;-73
2022/11/12 10:26:22;;;;;;;;;;;14.70;99.90;;;;;;5094104;28;19915;-73
2022/11/12 10:28:50;;;;;;;;;;;14.60;99.90;;;;;;5094234;28;19915;-72
2022/11/12 10:31:18;;;;;;;;;;;14.60;99.90;;;;;;5093988;28;20332;-76
2022/11/12 10:33:43;;;;;;;;;;;14.80;99.90;;;;;;5093827;28;19957;-73
2022/11/12 10:36:35;;;;;;;;;;;14.80;99.90;;;;;;5094169;28;20363;-75
2022/11/12 10:39:00;;;;;;;;;;;14.80;99.90;;;;;;5089146;28;19908;-74
2022/11/12 10:41:29;;;;;;;;;;;14.90;99.90;;;;;;5093918;28;19953;-76
2022/11/12 10:43:56;;;;;;;;;;;14.80;99.90;;;;;;5075578;28;19939;-73
2022/11/12 10:46:23;;;;;;;;;;;14.80;99.90;;;;;;5094162;28;19908;-75
2022/11/12 10:48:59;;;;;;;;;;;14.90;99.90;;;;;;5094133;28;19917;-74
2022/11/12 10:51:27;;;;;;;;;;;14.90;99.90;;;;;;5093401;28;19924;-78
2022/11/12 10:53:53;;;;;;;;;;;15.00;99.90;;;;;;5094580;28;20277;-74
2022/11/12 10:56:28;;;;;;;;;;;15.00;99.90;;;;;;5092842;28;20212;-75
2022/11/12 10:59:12;;;;;;;;;;;15.00;99.90;;;;;;5093962;28;19995;-73
2022/11/12 11:01:38;;;;;;;;;;;15.00;99.90;;;;;;5093524;28;20012;-75
2022/11/12 11:04:05;;;;;;;;;;;15.00;99.90;;;;;;5093990;28;20381;-75
2022/11/12 11:06:30;;;;;;;;;;;14.90;99.90;;;;;;5093702;28;19956;-75
2022/11/12 11:09:11;;;;;;;;;;;14.80;99.90;;;;;;5092140;28;19951;-74
2022/11/12 11:11:36;;;;;;;;;;;14.80;99.90;;;;;;5093377;28;19931;-76
2022/11/12 11:14:17;;;;;;;;;;;14.70;99.90;;;;;;5093413;28;20361;-75
2022/11/12 11:17:15;;;;;;;;;;;14.60;99.90;;;;;;5093562;28;19915;-75
2022/11/12 11:19:41;;;;;;;;;;;14.50;99.90;;;;;;5038034;28;19986;-75
2022/11/12 11:22:25;;;;;;;;;;;14.50;99.90;;;;;;5093452;28;19916;-75
2022/11/12 11:24:57;;;;;;;;;;;14.50;99.90;;;;;;5093777;28;20339;-76
2022/11/12 11:27:41;;;;;;;;;;;14.60;99.90;;;;;;5093518;28;19908;-75
2022/11/12 11:30:09;;;;;;;;;;;14.60;99.90;;;;;;5093701;28;19962;-75
2022/11/12 11:32:54;;;;;;;;;;;14.60;99.90;;;;;;5093369;28;20010;-75
2022/11/12 11:35:31;;;;;;;;;;;14.60;99.90;;;;;;5094166;28;19908;-75
2022/11/12 11:37:59;;;;;;;;;;;14.70;99.90;;;;;;5097195;28;19908;-76
2022/11/12 11:40:30;;;;;;;;;;;14.80;99.90;;;;;;5097275;28;19918;-75
2022/11/12 11:43:21;;;;;;;;;;;14.90;99.90;;;;;;5097546;28;19916;-76
2022/11/12 11:46:02;;;;;;;;;;;15.00;99.90;;;;;;5097830;28;19958;-76
2022/11/12 11:48:30;;;;;;;;;;;15.10;99.90;;;;;;5097163;28;20365;-75
2022/11/12 11:51:11;;;;;;;;;;;15.10;99.90;;;;;;5078640;28;20377;-75
2022/11/12 11:53:43;;;;;;;;;;;15.20;99.90;;;;;;5098146;28;19926;-75
2022/11/12 11:56:22;;;;;;;;;;;15.30;99.90;;;;;;5090795;28;20014;-75
2022/11/12 11:58:47;;;;;;;;;;;15.30;99.90;;;;;;5097475;28;19912;-75
2022/11/12 12:01:25;;;;;;;;;;;15.30;99.90;;;;;;5096955;28;19957;-76
2022/11/12 12:03:59;;;;;;;;;;;15.40;99.90;;;;;;5097093;28;19916;-76
2022/11/12 12:06:25;;;;;;;;;;;15.40;99.90;;;;;;5096797;28;19913;-76
2022/11/12 12:08:50;;;;;;;;;;;15.50;99.90;;;;;;5096783;28;20418;-75
2022/11/12 12:11:18;;;;;;;;;;;15.50;99.90;;;;;;5096724;28;19908;-75
2022/11/12 12:14:05;;;;;;;;;;;15.50;99.90;;;;;;5096675;28;19908;-75
2022/11/12 12:16:44;;;;;;;;;;;15.50;99.90;;;;;;5097268;28;19915;-75
2022/11/12 12:19:28;;;;;;;;;;;15.50;99.90;;;;;;5096537;28;19908;-75
2022/11/12 12:21:55;;;;;;;;;;;15.60;99.90;;;;;;5096417;28;19908;-76
2022/11/12 12:24:24;;;;;;;;;;;15.70;99.90;;;;;;5096441;28;19908;-75
2022/11/12 12:26:53;;;;;;;;;;;15.80;99.90;;;;;;5096720;28;19914;-76
2022/11/12 12:29:23;;;;;;;;;;;15.80;99.90;;;;;;5096356;28;19957;-76
2022/11/12 12:31:54;;;;;;;;;;;15.80;99.90;;;;;;5096604;28;19908;-75
2022/11/12 12:34:40;;;;;;;;;;;15.90;99.90;;;;;;5096428;28;20282;-74
2022/11/12 12:37:26;;;;;;;;;;;15.90;99.90;;;;;;5095405;28;19912;-74
2022/11/12 12:39:57;;;;;;;;;;;15.90;99.90;;;;;;5095434;28;20271;-74
2022/11/12 12:42:29;;;;;;;;;;;15.90;99.90;;;;;;5096432;28;20354;-76
2022/11/12 12:44:59;;;;;;;;;;;16.00;99.90;;;;;;5096278;28;19908;-75
2022/11/12 12:47:25;;;;;;;;;;;16.00;99.90;;;;;;5077133;28;19958;-75
2022/11/12 12:49:51;;;;;;;;;;;16.00;99.90;;;;;;5095966;28;19908;-74
2022/11/12 12:52:16;;;;;;;;;;;16.10;99.90;;;;;;5095673;28;19927;-75
2022/11/12 12:54:51;;;;;;;;;;;16.10;99.90;;;;;;5096449;28;20427;-75
2022/11/12 12:57:33;;;;;;;;;;;16.20;99.90;;;;;;5095775;28;19908;-75
2022/11/12 13:00:17;;;;;;;;;;;16.20;99.90;;;;;;5096363;28;20007;-74
2022/11/12 13:02:43;;;;;;;;;;;16.20;99.90;;;;;;5095630;28;19912;-75
2022/11/12 13:05:41;;;;;;;;;;;16.30;99.90;;;;;;5096007;28;19908;-75
2022/11/12 13:08:21;;;;;;;;;;;16.30;99.90;;;;;;5040293;28;20003;-75
2022/11/12 13:10:48;;;;;;;;;;;16.30;99.90;;;;;;5096188;28;19915;-75
2022/11/12 13:13:17;;;;;;;;;;;16.30;99.90;;;;;;5095500;28;19908;-74
2022/11/12 13:15:43;;;;;;;;;;;16.40;99.90;;;;;;5095752;28;19908;-74
2022/11/12 13:18:09;;;;;;;;;;;16.40;99.90;;;;;;5095716;28;19909;-75
2022/11/12 13:20:36;;;;;;;;;;;16.50;99.90;;;;;;5095701;28;19913;-74
2022/11/12 13:23:03;;;;;;;;;;;16.50;99.90;;;;;;5095241;28;20258;-76
2022/11/12 13:25:30;;;;;;;;;;;16.50;99.90;;;;;;5095266;28;20316;-75
2022/11/12 13:28:02;;;;;;;;;;;16.50;99.90;;;;;;5095800;28;19995;-75
2022/11/12 13:30:27;;;;;;;;;;;16.60;99.90;;;;;;5095194;28;19908;-75
2022/11/12 13:32:53;;;;;;;;;;;16.60;99.90;;;;;;5095095;28;20378;-75
2022/11/12 13:35:26;;;;;;;;;;;16.70;99.90;;;;;;5095085;28;19908;-75
2022/11/12 13:37:55;;;;;;;;;;;16.70;99.90;;;;;;5095611;28;19914;-75
2022/11/12 13:40:20;;;;;;;;;;;16.80;99.90;;;;;;5095003;28;19909;-75
2022/11/12 13:42:49;;;;;;;;;;;16.80;99.90;;;;;;5094816;28;19919;-76
2022/11/12 13:45:15;;;;;;;;;;;16.80;99.90;;;;;;5095508;28;19908;-75
2022/11/12 13:47:41;;;;;;;;;;;16.80;99.90;;;;;;5094862;28;19909;-75
2022/11/12 13:50:08;;;;;;;;;;;16.80;99.90;;;;;;5094771;28;20336;-75
2022/11/12 13:52:34;;;;;;;;;;;16.90;99.90;;;;;;5095091;28;20007;-74
2022/11/12 13:55:04;;;;;;;;;;;16.90;99.90;;;;;;5094683;28;20001;-75
2022/11/12 13:57:31;;;;;;;;;;;17.00;99.90;;;;;;5094604;28;20293;-75
2022/11/12 14:00:15;;;;;;;;;;;17.00;99.90;;;;;;5093649;28;20377;-74
2022/11/12 14:02:41;;;;;;;;;;;17.00;99.90;;;;;;5094507;28;19919;-75
2022/11/12 14:05:14;;;;;;;;;;;17.10;99.90;;;;;;5094546;28;19919;-74
2022/11/12 14:07:58;;;;;;;;;;;17.10;99.90;;;;;;5094462;28;19908;-74
2022/11/12 14:10:36;;;;;;;;;;;17.10;99.90;;;;;;5094714;28;19908;-75
2022/11/12 14:13:17;;;;;;;;;;;17.10;99.90;;;;;;5094627;28;19908;-75
2022/11/12 14:15:48;;;;;;;;;;;17.10;99.90;;;;;;5094651;28;19967;-76
2022/11/12 14:18:20;;;;;;;;;;;17.10;99.90;;;;;;5094349;28;19999;-75
2022/11/12 14:20:45;;;;;;;;;;;17.10;99.90;;;;;;5094512;28;19918;-75
2022/11/12 14:23:15;;;;;;;;;;;17.10;99.90;;;;;;5094167;28;19912;-75
2022/11/12 14:25:53;;;;;;;;;;;17.10;99.90;;;;;;5094501;28;19908;-75
2022/11/12 14:28:26;;;;;;;;;;;17.20;99.90;;;;;;5093768;28;20340;-75
2022/11/12 14:30:52;;;;;;;;;;;17.20;99.90;;;;;;5094654;28;19915;-75
2022/11/12 14:33:20;;;;;;;;;;;17.20;99.90;;;;;;5094083;28;19908;-76
2022/11/12 14:35:46;;;;;;;;;;;17.20;99.90;;;;;;5094345;28;20384;-75
2022/11/12 14:38:11;;;;;;;;;;;17.20;99.90;;;;;;5093992;28;20011;-76
2022/11/12 14:40:48;;;;;;;;;;;17.20;99.90;;;;;;5094548;28;20365;-75
2022/11/12 14:43:17;;;;;;;;;;;17.10;99.90;;;;;;5093738;28;19919;-76
2022/11/12 14:45:46;;;;;;;;;;;17.10;99.90;;;;;;5093884;28;19915;-75
2022/11/12 14:48:13;;;;;;;;;;;17.10;99.90;;;;;;5093858;28;19909;-76
2022/11/12 14:50:40;;;;;;;;;;;17.10;99.90;;;;;;5093894;28;19908;-76
2022/11/12 14:53:12;;;;;;;;;;;17.10;99.90;;;;;;5094888;28;20006;-75
2022/11/12 14:55:39;;;;;;;;;;;17.10;99.90;;;;;;5094101;28;19912;-75
2022/11/12 14:58:05;;;;;;;;;;;17.10;99.90;;;;;;5094360;28;19909;-76
2022/11/12 15:00:33;;;;;;;;;;;17.10;99.90;;;;;;5093733;28;19915;-76